createdAt,value
2023-05-16T00:01:05.991Z,13.39
2023-05-16T00:03:34.858Z,12.25
2023-05-16T00:06:03.566Z,13.14
2023-05-16T00:08:32.261Z,12.58
2023-05-16T00:11:01.553Z,12.22
2023-05-16T00:13:31.760Z,12.71
2023-05-16T00:16:02.629Z,13.19
2023-05-16T00:18:32.541Z,13.56
2023-05-16T00:21:01.771Z,13.37
2023-05-16T00:23:30.341Z,12.87
2023-05-16T00:25:58.878Z,12.25
2023-05-16T00:28:27.432Z,12.73
2023-05-16T00:30:56.071Z,13.21
2023-05-16T00:33:24.716Z,13.25
2023-05-16T00:35:54.803Z,12.72
2023-05-16T00:38:23.403Z,11.87
2023-05-16T00:40:51.927Z,12.40
2023-05-16T00:43:20.555Z,12.60
2023-05-16T00:45:49.101Z,11.60
2023-05-16T00:48:17.805Z,11.35
2023-05-16T00:50:46.613Z,11.41
2023-05-16T00:53:16.839Z,11.73
2023-05-16T00:55:46.187Z,11.08
2023-05-16T00:58:15.183Z,12.78
2023-05-16T01:00:43.795Z,12.03
2023-05-16T01:03:14.836Z,12.11
2023-05-16T01:05:43.575Z,12.57
2023-05-16T01:08:12.241Z,11.85
2023-05-16T01:10:50.642Z,12.43
2023-05-16T01:13:28.429Z,12.80
2023-05-16T01:16:06.141Z,10.55
2023-05-16T01:18:43.421Z,11.30
2023-05-16T01:21:17.551Z,10.87
2023-05-16T01:23:53.824Z,10.74
2023-05-16T01:26:26.680Z,11.48
2023-05-16T01:28:55.888Z,10.92
2023-05-16T01:31:25.301Z,11.13
2023-05-16T01:33:53.894Z,10.52
2023-05-16T01:36:27.243Z,11.38
2023-05-16T01:39:04.138Z,11.65
2023-05-16T01:41:42.522Z,10.36
2023-05-16T01:44:19.007Z,11.46
2023-05-16T01:46:50.264Z,11.04
2023-05-16T01:49:26.515Z,11.94
2023-05-16T01:52:01.471Z,10.72
2023-05-16T01:54:34.294Z,12.42
2023-05-16T01:57:08.386Z,12.13
2023-05-16T01:59:37.603Z,11.92
2023-05-16T02:02:06.264Z,11.90
2023-05-16T02:04:34.832Z,11.02
2023-05-16T02:07:03.541Z,10.05
2023-05-16T02:09:32.080Z,11.08
2023-05-16T02:12:00.894Z,11.85
2023-05-16T02:14:30.823Z,11.77
2023-05-16T02:16:59.883Z,11.50
2023-05-16T02:19:28.505Z,10.18
2023-05-16T02:21:57.280Z,11.89
2023-05-16T02:24:25.977Z,11.51
2023-05-16T02:26:54.538Z,11.08
2023-05-16T02:29:23.086Z,11.65
2023-05-16T02:31:53.042Z,11.29
2023-05-16T02:34:21.616Z,11.13
2023-05-16T02:36:50.626Z,11.98
2023-05-16T02:39:19.170Z,10.97
2023-05-16T02:41:47.698Z,11.49
2023-05-16T02:44:16.248Z,10.56
2023-05-16T02:46:44.958Z,10.52
2023-05-16T02:49:14.976Z,11.07
2023-05-16T02:51:43.538Z,10.55
2023-05-16T02:54:12.093Z,11.85
2023-05-16T02:56:40.601Z,10.79
2023-05-16T02:59:09.157Z,12.56
2023-05-16T03:01:37.768Z,12.05
2023-05-16T03:04:06.536Z,11.21
2023-05-16T03:06:36.510Z,11.27
2023-05-16T03:09:05.095Z,11.69
2023-05-16T03:11:33.612Z,12.05
2023-05-16T03:14:02.197Z,11.40
2023-05-16T03:16:30.894Z,11.29
2023-05-16T03:18:59.591Z,11.57
2023-05-16T03:21:28.239Z,10.32
2023-05-16T03:23:58.327Z,11.17
2023-05-16T03:26:27.585Z,9.99
2023-05-16T03:28:56.212Z,10.36
2023-05-16T03:31:24.818Z,10.16
2023-05-16T03:33:53.354Z,9.41
2023-05-16T03:36:24.330Z,11.04
2023-05-16T03:38:52.877Z,10.47
2023-05-16T03:41:22.819Z,10.45
2023-05-16T03:43:51.437Z,10.30
2023-05-16T03:46:20.130Z,11.51
2023-05-16T03:48:48.799Z,12.37
2023-05-16T03:51:17.352Z,12.20
2023-05-16T03:53:45.873Z,10.14
2023-05-16T03:56:14.408Z,11.26
2023-05-16T03:58:44.279Z,11.61
2023-05-16T04:01:12.809Z,10.65
2023-05-16T04:03:41.352Z,9.96
2023-05-16T04:06:10.007Z,9.82
2023-05-16T04:08:39.803Z,9.55
2023-05-16T04:11:08.424Z,11.27
2023-05-16T04:13:37.120Z,10.48
2023-05-16T04:16:07.699Z,9.85
2023-05-16T04:18:36.316Z,10.06
2023-05-16T04:21:05.388Z,9.86
2023-05-16T04:23:33.980Z,10.80
2023-05-16T04:26:04.735Z,10.41
2023-05-16T04:28:33.571Z,10.51
2023-05-16T04:31:02.220Z,10.51
2023-05-16T04:33:32.311Z,10.65
2023-05-16T04:36:01.553Z,9.79
2023-05-16T04:38:30.064Z,10.16
2023-05-16T04:40:58.584Z,11.47
2023-05-16T04:43:27.236Z,11.70
2023-05-16T04:45:55.907Z,12.17
2023-05-16T04:48:24.527Z,12.61
2023-05-16T04:50:54.438Z,12.17
2023-05-16T04:53:23.155Z,10.92
2023-05-16T04:55:51.688Z,10.76
2023-05-16T04:58:20.201Z,11.21
2023-05-16T05:00:48.754Z,11.05
2023-05-16T05:03:18.053Z,11.49
2023-05-16T05:05:47.865Z,12.88
2023-05-16T05:08:17.796Z,11.83
2023-05-16T05:10:46.342Z,11.21
2023-05-16T05:13:14.980Z,11.42
2023-05-16T05:15:43.518Z,12.23
2023-05-16T05:20:40.514Z,11.96
2023-05-16T05:23:09.048Z,13.12
2023-05-16T05:25:39.735Z,14.48
2023-05-16T05:28:08.293Z,13.16
2023-05-16T05:30:36.982Z,12.41
2023-05-16T05:33:05.612Z,12.89
2023-05-16T05:35:34.283Z,13.83
2023-05-16T05:38:02.838Z,12.36
2023-05-16T05:40:31.343Z,13.73
2023-05-16T05:43:01.277Z,15.27
2023-05-16T05:45:29.939Z,15.36
2023-05-16T05:47:58.786Z,15.67
2023-05-16T05:50:27.364Z,16.72
2023-05-16T05:52:57.076Z,16.58
2023-05-16T05:55:25.851Z,14.75
2023-05-16T05:57:54.752Z,14.53
2023-05-16T06:00:25.036Z,14.77
2023-05-16T06:02:53.758Z,15.17
2023-05-16T06:05:23.829Z,14.06
2023-05-16T06:07:52.483Z,15.39
2023-05-16T06:10:21.496Z,15.74
2023-05-16T06:12:50.169Z,14.44
2023-05-16T06:15:18.888Z,16.45
2023-05-16T06:17:49.099Z,17.13
2023-05-16T06:20:17.774Z,17.28
2023-05-16T06:22:46.300Z,17.06
2023-05-16T06:25:14.823Z,16.62
2023-05-16T06:27:43.337Z,15.98
2023-05-16T06:30:12.470Z,15.14
2023-05-16T06:32:41.530Z,15.22
2023-05-16T06:35:11.844Z,16.42
2023-05-16T06:37:42.745Z,17.01
2023-05-16T06:40:12.374Z,14.69
2023-05-16T06:42:40.955Z,16.44
2023-05-16T06:45:11.080Z,13.70
2023-05-16T06:47:39.713Z,14.39
2023-05-16T06:50:11.443Z,14.73
2023-05-16T06:52:40.649Z,14.89
2023-05-16T06:55:10.256Z,14.49
2023-05-16T06:57:38.954Z,13.91
2023-05-16T07:00:09.598Z,14.24
2023-05-16T07:02:38.332Z,12.25
2023-05-16T07:05:07.974Z,12.30
2023-05-16T07:07:37.925Z,12.73
2023-05-16T07:10:07.223Z,11.99
2023-05-16T07:12:36.958Z,14.24
2023-05-16T07:15:06.294Z,12.65
2023-05-16T07:17:34.902Z,14.90
2023-05-16T07:20:05.514Z,14.76
2023-05-16T07:22:34.285Z,12.85
2023-05-16T07:25:04.516Z,13.09
2023-05-16T07:27:33.160Z,14.88
2023-05-16T07:30:01.721Z,14.85
2023-05-16T07:32:30.381Z,14.50
2023-05-16T07:34:58.924Z,15.18
2023-05-16T07:37:31.202Z,16.69
2023-05-16T07:40:00.008Z,16.05
2023-05-16T07:42:29.927Z,16.75
2023-05-16T07:44:58.545Z,15.32
2023-05-16T07:47:27.225Z,15.32
2023-05-16T07:49:55.860Z,14.68
2023-05-16T07:52:24.398Z,15.63
2023-05-16T07:54:52.974Z,16.64
2023-05-16T07:57:23.966Z,16.32
2023-05-16T07:59:54.849Z,16.82
2023-05-16T08:02:24.750Z,16.44
2023-05-16T08:04:53.490Z,15.01
2023-05-16T08:07:22.038Z,14.74
2023-05-16T08:09:50.630Z,13.93
2023-05-16T08:12:19.404Z,14.25
2023-05-16T08:14:47.970Z,15.30
2023-05-16T08:17:17.889Z,13.58
2023-05-16T08:19:46.480Z,14.12
2023-05-16T08:22:15.101Z,15.24
2023-05-16T08:24:43.679Z,15.88
2023-05-16T08:27:12.373Z,15.21
2023-05-16T08:29:41.124Z,16.35
2023-05-16T08:32:11.384Z,16.00
2023-05-16T08:34:41.289Z,16.50
2023-05-16T08:37:10.439Z,16.21
2023-05-16T08:39:40.649Z,15.76
2023-05-16T08:42:09.989Z,15.68
2023-05-16T08:44:38.555Z,14.62
2023-05-16T08:47:13.989Z,17.10
2023-05-16T08:49:48.558Z,18.10
2023-05-16T08:52:21.975Z,18.04
2023-05-16T08:55:01.928Z,16.05
2023-05-16T08:57:38.792Z,15.99
2023-05-16T09:00:12.196Z,16.40
2023-05-16T09:02:41.690Z,14.96
2023-05-16T09:05:14.666Z,15.44
2023-05-16T09:07:44.196Z,16.18
2023-05-16T09:10:13.869Z,15.79
2023-05-16T09:12:43.511Z,17.64
2023-05-16T09:15:13.029Z,18.19
2023-05-16T09:17:44.828Z,17.84
2023-05-16T09:20:17.680Z,15.35
2023-05-16T09:22:53.813Z,16.08
2023-05-16T09:25:30.200Z,15.80
2023-05-16T09:28:02.324Z,17.13
2023-05-16T09:30:34.266Z,16.58
2023-05-16T09:33:03.742Z,16.15
2023-05-16T09:38:05.513Z,16.47
2023-05-16T09:40:34.127Z,16.25
2023-05-16T09:43:06.889Z,15.87
2023-05-16T09:45:36.358Z,15.68
2023-05-16T09:48:07.564Z,15.53
2023-05-16T09:50:39.102Z,16.55
2023-05-16T09:53:07.920Z,16.17
2023-05-16T09:55:36.583Z,16.54
2023-05-16T09:58:05.167Z,16.76
2023-05-16T10:00:35.156Z,15.42
2023-05-16T10:03:05.920Z,16.76
2023-05-16T10:05:37.101Z,17.36
2023-05-16T10:08:06.289Z,16.07
2023-05-16T10:10:39.569Z,17.72
2023-05-16T10:13:12.444Z,16.73
2023-05-16T10:15:42.348Z,17.58
2023-05-16T10:18:13.474Z,17.60
2023-05-16T10:20:45.569Z,17.09
2023-05-16T10:23:19.669Z,16.72
2023-05-16T10:25:49.535Z,15.31
2023-05-16T10:28:18.441Z,16.25
2023-05-16T10:30:48.353Z,15.76
2023-05-16T10:33:18.988Z,15.91
2023-05-16T10:35:48.965Z,15.55
2023-05-16T10:38:20.281Z,14.82
2023-05-16T10:40:49.822Z,15.31
2023-05-16T10:43:26.818Z,15.03
2023-05-16T10:46:03.527Z,15.84
2023-05-16T10:48:33.715Z,15.88
2023-05-16T10:51:04.865Z,16.90
2023-05-16T10:53:34.796Z,18.28
2023-05-16T10:56:11.146Z,17.25
2023-05-16T10:58:48.093Z,15.61
2023-05-16T11:01:21.210Z,17.12
2023-05-16T11:04:12.618Z,17.67
2023-05-16T11:07:04.493Z,15.96
2023-05-16T11:09:33.083Z,17.07
2023-05-16T11:12:04.021Z,16.98
2023-05-16T11:14:39.541Z,16.54
2023-05-16T11:17:13.533Z,16.09
2023-05-16T11:19:44.994Z,15.23
2023-05-16T11:22:25.783Z,16.25
2023-05-16T11:24:57.307Z,16.56
2023-05-16T11:27:28.631Z,16.75
2023-05-16T11:30:03.300Z,16.27
2023-05-16T11:32:35.302Z,16.30
2023-05-16T11:35:04.781Z,15.24
2023-05-16T11:37:38.536Z,14.92
2023-05-16T11:40:09.825Z,14.72
2023-05-16T11:42:39.804Z,15.43
2023-05-16T11:45:09.507Z,14.73
2023-05-16T11:47:40.090Z,13.78
2023-05-16T11:50:12.401Z,13.34
2023-05-16T11:52:44.578Z,13.33
2023-05-16T11:55:21.423Z,14.89
2023-05-16T11:57:54.033Z,14.96
2023-05-16T12:00:26.649Z,14.23
2023-05-16T12:03:01.582Z,14.73
2023-05-16T12:05:32.085Z,15.83
2023-05-16T12:08:02.807Z,15.69
2023-05-16T12:10:35.095Z,15.15
2023-05-16T12:13:04.900Z,15.85
2023-05-16T12:15:34.384Z,16.64
2023-05-16T12:18:03.544Z,17.00
2023-05-16T12:20:32.435Z,17.72
2023-05-16T12:23:02.421Z,16.17
2023-05-16T12:25:32.887Z,16.65
2023-05-16T12:28:03.580Z,16.72
2023-05-16T12:30:33.293Z,17.05
2023-05-16T12:33:06.753Z,17.33
2023-05-16T12:35:39.074Z,16.30
2023-05-16T12:38:10.613Z,17.50
2023-05-16T12:40:40.594Z,18.06
2023-05-16T12:43:15.530Z,17.37
2023-05-16T12:45:50.505Z,17.29
2023-05-16T12:48:19.182Z,16.98
2023-05-16T12:50:48.886Z,17.07
2023-05-16T12:53:20.061Z,16.79
2023-05-16T12:55:48.798Z,16.36
2023-05-16T12:58:18.477Z,16.73
2023-05-16T13:00:47.071Z,15.81
2023-05-16T13:03:15.688Z,16.83
2023-05-16T13:05:44.881Z,17.01
2023-05-16T13:08:13.441Z,16.57
2023-05-16T13:10:43.311Z,16.36
2023-05-16T13:13:13.686Z,16.80
2023-05-16T13:15:45.714Z,17.31
2023-05-16T13:18:14.426Z,17.32
2023-05-16T13:20:43.647Z,15.65
2023-05-16T13:23:12.237Z,16.04
2023-05-16T13:25:42.201Z,16.49
2023-05-16T13:28:11.041Z,18.10
2023-05-16T13:30:40.137Z,17.93
2023-05-16T13:33:08.808Z,18.21
2023-05-16T13:35:38.494Z,17.70
2023-05-16T13:38:07.098Z,16.45
2023-05-16T13:40:36.663Z,15.34
2023-05-16T13:43:06.869Z,15.89
2023-05-16T13:45:35.523Z,16.19
2023-05-16T13:48:04.618Z,16.31
2023-05-16T13:50:33.985Z,15.89
2023-05-16T13:53:02.821Z,15.96
2023-05-16T13:55:31.528Z,15.55
2023-05-16T13:58:00.116Z,15.20
2023-05-16T14:00:44.618Z,16.57
2023-05-16T14:03:14.618Z,16.45
2023-05-16T14:05:43.278Z,15.73
2023-05-16T14:08:11.863Z,16.20
2023-05-16T14:10:40.477Z,16.70
2023-05-16T14:13:09.049Z,16.03
2023-05-16T14:15:38.936Z,16.51
2023-05-16T14:18:07.706Z,17.18
2023-05-16T14:20:36.397Z,16.11
2023-05-16T14:23:04.993Z,15.36
2023-05-16T14:25:33.546Z,16.10
2023-05-16T14:28:02.099Z,16.19
2023-05-16T14:30:31.628Z,16.42
2023-05-16T14:33:02.304Z,16.38
2023-05-16T14:35:31.308Z,16.62
2023-05-16T14:37:59.959Z,16.68
2023-05-16T14:40:28.499Z,17.08
2023-05-16T14:42:57.054Z,16.62
2023-05-16T14:45:25.735Z,16.19
2023-05-16T14:47:54.502Z,16.35
2023-05-16T14:50:24.580Z,16.37
2023-05-16T14:52:53.730Z,16.07
2023-05-16T14:55:22.926Z,16.83
2023-05-16T14:57:58.920Z,15.31
2023-05-16T15:00:31.509Z,15.24
2023-05-16T15:03:00.255Z,15.87
2023-05-16T15:05:30.496Z,15.93
2023-05-16T15:07:59.126Z,15.79
2023-05-16T15:10:27.980Z,15.33
2023-05-16T15:12:56.625Z,16.15
2023-05-16T15:15:25.164Z,15.81
2023-05-16T15:17:54.832Z,15.94
2023-05-16T15:20:23.606Z,16.04
2023-05-16T15:22:53.532Z,15.93
2023-05-16T15:25:22.202Z,14.74
2023-05-16T15:27:51.206Z,15.44
2023-05-16T15:30:19.744Z,16.53
2023-05-16T15:32:49.295Z,15.42
2023-05-16T15:35:18.106Z,15.73
2023-05-16T15:37:46.684Z,15.51
2023-05-16T15:40:16.984Z,14.60
2023-05-16T15:42:45.589Z,15.76
2023-05-16T15:45:14.421Z,15.13
2023-05-16T15:47:43.335Z,14.56
2023-05-16T15:50:12.630Z,14.50
2023-05-16T15:52:41.385Z,14.49
2023-05-16T15:55:11.965Z,15.05
2023-05-16T15:57:43.863Z,14.67
2023-05-16T16:00:13.585Z,14.23
2023-05-16T16:02:44.965Z,13.32
2023-05-16T16:05:13.574Z,13.31
2023-05-16T16:07:42.163Z,13.58
2023-05-16T16:10:12.033Z,13.91
2023-05-16T16:12:42.023Z,14.21
2023-05-16T16:15:12.123Z,13.77
2023-05-16T16:17:40.729Z,15.00
2023-05-16T16:20:10.125Z,13.96
2023-05-16T16:22:38.680Z,14.47
2023-05-16T16:25:08.202Z,15.10
2023-05-16T16:27:36.738Z,14.70
2023-05-16T16:30:10.297Z,14.35
2023-05-16T16:32:39.114Z,14.87
2023-05-16T16:35:08.172Z,14.93
2023-05-16T16:37:36.909Z,14.91
2023-05-16T16:40:09.189Z,15.01
2023-05-16T16:42:40.478Z,14.11
2023-05-16T16:45:11.486Z,14.66
2023-05-16T16:47:40.580Z,14.92
2023-05-16T16:50:10.917Z,14.82
2023-05-16T16:52:39.521Z,15.11
2023-05-16T16:55:08.945Z,14.60
2023-05-16T16:57:37.559Z,16.17
2023-05-16T17:00:08.906Z,14.48
2023-05-16T17:02:39.045Z,13.85
2023-05-16T17:05:08.771Z,14.50
2023-05-16T17:07:37.373Z,14.62
2023-05-16T17:10:07.950Z,14.94
2023-05-16T17:12:40.724Z,15.42
2023-05-16T17:15:10.619Z,14.67
2023-05-16T17:17:40.614Z,13.10
2023-05-16T17:20:12.647Z,14.82
2023-05-16T17:22:41.401Z,14.65
2023-05-16T17:25:10.892Z,14.99
2023-05-16T17:27:40.739Z,14.95
2023-05-16T17:30:11.648Z,14.90
2023-05-16T17:32:41.580Z,15.05
2023-05-16T17:35:10.659Z,14.82
2023-05-16T17:37:39.344Z,14.56
2023-05-16T17:40:10.638Z,15.57
2023-05-16T17:42:39.168Z,14.84
2023-05-16T17:45:09.033Z,15.31
2023-05-16T17:47:37.901Z,14.63
2023-05-16T17:50:10.327Z,14.55
2023-05-16T17:52:40.471Z,14.77
2023-05-16T17:55:10.915Z,15.91
2023-05-16T17:57:40.034Z,15.98
2023-05-16T18:00:09.753Z,15.92
2023-05-16T18:02:38.813Z,15.92
2023-05-16T18:05:10.372Z,15.17
2023-05-16T18:07:39.004Z,14.64
2023-05-16T18:10:08.745Z,14.73
2023-05-16T18:12:38.694Z,15.11
2023-05-16T18:15:08.929Z,15.44
2023-05-16T18:17:37.779Z,15.07
2023-05-16T18:20:11.037Z,14.66
2023-05-16T18:22:40.291Z,15.17
2023-05-16T18:25:11.538Z,14.84
2023-05-16T18:27:40.688Z,14.94
2023-05-16T18:30:10.748Z,15.54
2023-05-16T18:32:39.542Z,14.73
2023-05-16T18:35:10.173Z,15.23
2023-05-16T18:37:38.814Z,14.82
2023-05-16T18:40:08.891Z,15.40
2023-05-16T18:42:37.481Z,15.67
2023-05-16T18:45:06.678Z,15.44
2023-05-16T18:47:35.556Z,16.12
2023-05-16T18:50:04.762Z,15.84
2023-05-16T18:52:36.029Z,15.55
2023-05-16T18:55:04.919Z,15.44
2023-05-16T18:57:33.816Z,15.55
2023-05-16T19:00:02.434Z,15.82
2023-05-16T19:02:41.374Z,16.47
2023-05-16T19:05:11.422Z,14.85
2023-05-16T19:07:41.605Z,15.08
2023-05-16T19:10:10.772Z,15.36
2023-05-16T19:12:39.348Z,15.67
2023-05-16T19:15:09.286Z,15.00
2023-05-16T19:17:38.836Z,15.01
2023-05-16T19:20:09.326Z,15.06
2023-05-16T19:22:38.032Z,14.58
2023-05-16T19:25:09.101Z,15.20
2023-05-16T19:27:37.786Z,16.23
2023-05-16T19:30:07.569Z,16.22
2023-05-16T19:32:36.254Z,15.33
2023-05-16T19:35:05.495Z,14.79
2023-05-16T19:37:34.119Z,16.01
2023-05-16T19:40:02.851Z,15.97
2023-05-16T19:42:32.798Z,16.12
2023-05-16T19:45:01.368Z,15.80
2023-05-16T19:47:30.133Z,15.14
2023-05-16T19:49:58.745Z,14.88
2023-05-16T19:52:27.383Z,16.08
2023-05-16T19:54:55.956Z,16.39
2023-05-16T19:57:24.574Z,15.93
2023-05-16T19:59:54.564Z,15.44
2023-05-16T20:02:24.516Z,14.74
2023-05-16T20:04:53.985Z,14.80
2023-05-16T20:07:23.145Z,13.24
2023-05-16T20:09:52.018Z,14.46
2023-05-16T20:12:20.642Z,14.72
2023-05-16T20:14:49.210Z,15.48
2023-05-16T20:17:19.127Z,14.70
2023-05-16T20:19:47.865Z,14.48
2023-05-16T20:22:17.108Z,15.48
2023-05-16T20:24:45.735Z,15.98
2023-05-16T20:27:14.266Z,15.40
2023-05-16T20:29:42.848Z,15.88
2023-05-16T20:32:11.483Z,16.46
2023-05-16T20:34:41.876Z,14.69
2023-05-16T20:37:10.437Z,15.29
2023-05-16T20:39:39.079Z,14.49
2023-05-16T20:42:10.874Z,14.75
2023-05-16T20:44:39.531Z,14.53
2023-05-16T20:47:08.821Z,14.13
2023-05-16T20:49:39.750Z,14.39
2023-05-16T20:52:09.917Z,15.05
2023-05-16T20:54:38.491Z,15.12
2023-05-16T20:57:07.533Z,15.21
2023-05-16T20:59:38.717Z,14.80
2023-05-16T21:02:09.763Z,14.80
2023-05-16T21:04:38.477Z,13.25
2023-05-16T21:07:08.897Z,13.82
2023-05-16T21:09:38.046Z,12.92
2023-05-16T21:12:07.319Z,13.71
2023-05-16T21:14:36.526Z,14.24
2023-05-16T21:17:05.334Z,13.51
2023-05-16T21:19:35.450Z,13.11
2023-05-16T21:22:04.268Z,14.06
2023-05-16T21:24:35.635Z,13.51
2023-05-16T21:27:04.744Z,14.96
2023-05-16T21:29:33.331Z,15.23
2023-05-16T21:32:02.005Z,15.07
2023-05-16T21:34:30.672Z,13.57
2023-05-16T21:36:59.970Z,13.02
2023-05-16T21:39:28.580Z,13.68
2023-05-16T21:41:58.506Z,13.38
2023-05-16T21:44:27.081Z,13.99
2023-05-16T21:46:55.609Z,14.47
2023-05-16T21:49:24.180Z,14.69
2023-05-16T21:51:52.795Z,14.84
2023-05-16T21:54:21.368Z,13.36
2023-05-16T21:56:49.921Z,14.08
2023-05-16T21:59:19.857Z,14.68
2023-05-16T22:01:48.433Z,15.46
2023-05-16T22:04:17.256Z,14.88
2023-05-16T22:06:45.920Z,15.49
2023-05-16T22:09:14.482Z,15.84
2023-05-16T22:11:43.044Z,15.89
2023-05-16T22:14:11.651Z,15.30
2023-05-16T22:16:41.706Z,14.88
2023-05-16T22:19:10.293Z,15.15
2023-05-16T22:21:38.868Z,15.19
2023-05-16T22:24:08.079Z,14.99
2023-05-16T22:26:36.725Z,14.32
2023-05-16T22:29:05.274Z,14.53
2023-05-16T22:31:33.846Z,14.26
2023-05-16T22:34:03.916Z,15.04
2023-05-16T22:36:32.581Z,14.55
2023-05-16T22:39:01.205Z,14.38
2023-05-16T22:41:29.795Z,13.08
2023-05-16T22:43:58.428Z,13.43
2023-05-16T22:46:26.985Z,13.69
2023-05-16T22:48:55.578Z,14.71
2023-05-16T22:51:25.631Z,14.53
2023-05-16T22:53:54.197Z,15.19
2023-05-16T22:56:22.754Z,14.52
2023-05-16T22:58:51.456Z,14.96
2023-05-16T23:01:20.056Z,15.14
2023-05-16T23:03:48.793Z,15.09
2023-05-16T23:06:17.395Z,15.09
2023-05-16T23:08:47.289Z,13.72
2023-05-16T23:11:15.838Z,14.70
2023-05-16T23:13:44.417Z,14.50
2023-05-16T23:16:12.991Z,14.24
2023-05-16T23:18:41.726Z,13.17
2023-05-16T23:21:10.648Z,13.75
2023-05-16T23:23:39.363Z,13.60
2023-05-16T23:26:09.600Z,13.59
2023-05-16T23:28:38.316Z,14.30
2023-05-16T23:31:07.150Z,14.53
2023-05-16T23:33:35.903Z,14.95
2023-05-16T23:36:04.837Z,15.34
2023-05-16T23:38:33.550Z,15.62
2023-05-16T23:41:02.269Z,14.78
2023-05-16T23:43:32.875Z,14.35
2023-05-16T23:46:02.430Z,14.52
2023-05-16T23:48:31.497Z,14.53
2023-05-16T23:51:00.478Z,14.68
2023-05-16T23:53:31.181Z,15.17
2023-05-16T23:56:00.395Z,14.73
2023-05-16T23:58:29.543Z,14.15
